Time;durP1;ratioP1;P1;durP2;ratioP2;P2;SDS_P1;SDS_P2;PMS_P1;PMS_P2;Temp;Humidity;BMP_temperature;BMP_pressure;BME280_temperature;BME280_humidity;BME280_pressure;Samples;Min_cycle;Max_cycle;Signal;HPM_P1;HPM_P2
2023/10/22 00:01:28;;;;;;;17.45;4.07;;;;;;;21.99;77.03;96930.31;4425697;32;20479;-81
2023/10/22 00:03:56;;;;;;;12.35;3.95;;;;;;;21.91;78.49;96921.47;4425332;32;20695;-80
2023/10/22 00:06:23;;;;;;;15.27;3.95;;;;;;;21.87;77.82;96924.56;4425517;32;20116;-80
2023/10/22 00:08:50;;;;;;;11.10;4.28;;;;;;;21.85;78.61;96913.41;4425581;32;20086;-80
2023/10/22 00:11:17;;;;;;;17.37;5.03;;;;;;;21.82;78.64;96924.25;4425271;32;20078;-80
2023/10/22 00:13:44;;;;;;;9.60;3.90;;;;;;;21.72;78.95;96926.22;4425571;32;20106;-80
2023/10/22 00:16:11;;;;;;;14.48;5.10;;;;;;;21.28;81.44;96918.56;4411714;32;20169;-80
2023/10/22 00:18:38;;;;;;;12.85;4.40;;;;;;;21.37;81.70;96917.59;4409929;32;20164;-80
2023/10/22 00:21:08;;;;;;;13.98;4.22;;;;;;;21.08;83.18;96917.97;4410313;32;20394;-80
2023/10/22 00:23:36;;;;;;;12.18;4.90;;;;;;;21.40;81.31;96914.66;4410264;32;20441;-80
2023/10/22 00:26:03;;;;;;;17.10;4.50;;;;;;;21.08;82.92;96913.56;4409860;32;20193;-80
2023/10/22 00:28:33;;;;;;;12.57;4.05;;;;;;;21.49;81.03;96902.41;4410102;32;20738;-80
2023/10/22 00:31:00;;;;;;;15.82;4.70;;;;;;;21.26;81.96;96907.41;4410252;32;20107;-80
2023/10/22 00:33:27;;;;;;;14.07;4.80;;;;;;;21.42;81.19;96909.25;4409931;32;20112;-80
2023/10/22 00:35:58;;;;;;;17.40;4.90;;;;;;;21.21;83.08;96910.47;4409947;32;20148;-80
2023/10/22 00:38:26;;;;;;;15.45;4.95;;;;;;;21.30;81.74;96904.31;4409835;32;20090;-80
2023/10/22 00:40:53;;;;;;;15.77;5.43;;;;;;;21.32;81.73;96906.78;4410203;32;20110;-80
2023/10/22 00:43:20;;;;;;;19.20;5.55;;;;;;;21.13;83.44;96905.19;4409795;32;20161;-80
2023/10/22 00:45:47;;;;;;;16.52;5.30;;;;;;;20.95;85.09;96913.19;4409821;32;20173;-80
2023/10/22 00:48:16;;;;;;;17.60;5.18;;;;;;;21.21;83.42;96910.47;4396190;32;20094;-80
2023/10/22 00:50:44;;;;;;;13.23;5.15;;;;;;;20.99;84.75;96911.88;4410107;32;20083;-80
2023/10/22 00:53:13;;;;;;;11.48;4.50;;;;;;;21.32;82.84;96917.25;4409811;32;20112;-80
2023/10/22 00:55:40;;;;;;;19.40;4.68;;;;;;;21.37;82.04;96913.19;4396348;32;20116;-80
2023/10/22 00:58:07;;;;;;;16.77;5.22;;;;;;;21.16;83.37;96914.53;4396321;32;20355;-80
2023/10/22 01:00:35;;;;;;;15.20;4.95;;;;;;;20.84;85.68;96921.34;4396034;32;20154;-80
2023/10/22 01:03:03;;;;;;;14.73;4.90;;;;;;;20.36;89.21;96919.22;4396403;32;20121;-80
2023/10/22 01:05:31;;;;;;;17.33;5.05;;;;;;;20.27;88.47;96920.94;4410023;32;20594;-80
2023/10/22 01:07:58;;;;;;;14.63;4.82;;;;;;;20.41;88.84;96925.62;4409692;32;20094;-80
2023/10/22 01:10:25;;;;;;;15.35;4.78;;;;;;;20.69;85.83;96925.50;4409963;32;20157;-80
2023/10/22 01:12:52;;;;;;;14.77;4.57;;;;;;;20.45;86.12;96926.19;4409824;32;20106;-80
2023/10/22 01:15:19;;;;;;;16.30;4.85;;;;;;;20.59;86.02;96916.94;4409305;32;20166;-80
2023/10/22 01:17:46;;;;;;;14.02;5.05;;;;;;;20.72;85.51;96925.19;4419265;32;20104;-80
2023/10/22 01:20:13;;;;;;;14.82;5.18;;;;;;;20.71;85.24;96919.13;4425164;32;20433;-80
2023/10/22 01:22:40;;;;;;;11.40;4.35;;;;;;;20.50;85.40;96914.25;4424755;32;20093;-80
2023/10/22 01:25:07;;;;;;;12.27;4.22;;;;;;;20.49;85.94;96925.72;4424993;32;20161;-80
2023/10/22 01:27:35;;;;;;;14.63;4.85;;;;;;;20.28;86.99;96917.34;4424651;32;20421;-80
2023/10/22 01:30:03;;;;;;;14.52;4.85;;;;;;;20.37;86.47;96921.66;4425128;32;20149;-80
2023/10/22 01:32:30;;;;;;;15.98;4.68;;;;;;;20.57;85.35;96913.66;4425101;32;20151;-80
2023/10/22 01:34:57;;;;;;;12.52;4.30;;;;;;;20.67;84.91;96917.78;4424516;32;20135;-80
2023/10/22 01:37:24;;;;;;;12.60;4.43;;;;;;;20.91;82.96;96924.13;4424937;32;20168;-80
2023/10/22 01:39:52;;;;;;;18.17;4.68;;;;;;;21.24;80.81;96923.28;4424944;32;20157;-80
2023/10/22 01:42:20;;;;;;;14.55;4.85;;;;;;;21.29;80.16;96931.53;4424638;32;20120;-80
2023/10/22 01:44:46;;;;;;;14.00;5.20;;;;;;;21.42;79.70;96932.88;4411102;32;20136;-80
2023/10/22 01:47:13;;;;;;;15.60;4.75;;;;;;;21.48;79.11;96935.69;4424844;32;20089;-81
2023/10/22 01:49:42;;;;;;;16.23;4.80;;;;;;;21.84;77.03;96932.78;4424482;32;20165;-80
2023/10/22 01:52:10;;;;;;;11.27;4.25;;;;;;;21.87;76.90;96933.28;4424825;32;20089;-80
2023/10/22 01:54:39;;;;;;;15.10;4.93;;;;;;;22.07;76.48;96933.00;4423550;32;20109;-81
2023/10/22 01:57:06;;;;;;;15.70;4.25;;;;;;;22.54;73.02;96930.47;4424417;32;20148;-80
2023/10/22 01:59:33;;;;;;;9.43;3.85;;;;;;;22.17;74.63;96925.75;4424777;32;20443;-81
2023/10/22 02:02:00;;;;;;;10.88;3.62;;;;;;;21.83;76.42;96931.16;4424785;32;20155;-80
2023/10/22 02:04:30;;;;;;;13.35;4.15;;;;;;;21.96;75.54;96928.84;4424285;32;20183;-80
2023/10/22 02:06:57;;;;;;;11.48;3.60;;;;;;;20.96;81.52;96929.75;4424619;32;20102;-80
2023/10/22 02:09:24;;;;;;;13.15;3.37;;;;;;;20.25;85.88;96929.94;4424668;32;20108;-80
2023/10/22 02:11:52;;;;;;;10.93;3.05;;;;;;;19.99;88.42;96929.87;4424271;32;20165;-80
2023/10/22 02:14:19;;;;;;;10.10;3.55;;;;;;;19.87;90.17;96931.91;4424361;32;20136;-80
2023/10/22 02:16:46;;;;;;;11.00;3.00;;;;;;;19.76;90.39;96930.34;4423973;32;20086;-80
2023/10/22 02:19:13;;;;;;;9.10;3.00;;;;;;;19.55;92.07;96933.25;4424442;32;20090;-80
2023/10/22 02:21:41;;;;;;;9.57;2.90;;;;;;;19.50;93.14;96929.44;4424387;32;20150;-80
2023/10/22 02:24:08;;;;;;;7.75;2.53;;;;;;;19.64;91.34;96934.16;4424038;32;20522;-80
2023/10/22 02:26:35;;;;;;;9.75;3.55;;;;;;;19.25;93.20;96937.03;4424318;32;20147;-80
2023/10/22 02:29:03;;;;;;;10.07;2.65;;;;;;;19.17;94.53;96923.84;4424333;32;20082;-80
2023/10/22 02:31:30;;;;;;;5.85;2.45;;;;;;;19.56;92.02;96932.28;4423938;32;20480;-80
2023/10/22 02:34:07;;;;;;;11.00;2.83;;;;;;;19.54;91.45;96936.81;4424280;32;20472;-80
2023/10/22 02:36:34;;;;;;;7.95;2.42;;;;;;;19.55;90.31;96946.34;4424157;32;20109;-80
2023/10/22 02:39:04;;;;;;;9.35;2.50;;;;;;;19.60;89.64;96953.75;4423872;32;20373;-80
2023/10/22 02:41:31;;;;;;;5.62;2.25;;;;;;;19.41;90.38;96959.91;4424254;32;20105;-80
2023/10/22 02:43:58;;;;;;;11.30;2.50;;;;;;;19.68;89.11;96951.22;4424071;32;20102;-80
2023/10/22 02:46:25;;;;;;;6.87;2.30;;;;;;;19.74;88.13;96963.69;4423753;32;20165;-80
2023/10/22 02:48:52;;;;;;;5.00;2.28;;;;;;;19.84;87.35;96966.25;4423941;32;20160;-80
2023/10/22 02:51:20;;;;;;;7.43;2.10;;;;;;;19.39;89.63;96969.69;4424026;32;20116;-80
2023/10/22 02:53:46;;;;;;;7.10;1.90;;;;;;;19.54;89.60;96972.63;4423686;32;20112;-80
2023/10/22 02:56:13;;;;;;;8.52;1.92;;;;;;;19.55;88.46;96972.50;4423678;32;20089;-81
2023/10/22 02:58:40;;;;;;;6.80;1.83;;;;;;;19.67;87.27;96982.75;4423830;32;20507;-80
2023/10/22 03:01:10;;;;;;;8.60;2.00;;;;;;;19.59;87.99;96984.34;4423593;32;20149;-80
2023/10/22 03:03:41;;;;;;;7.90;2.47;;;;;;;19.64;87.49;96991.72;4410122;32;20508;-80
2023/10/22 03:06:10;;;;;;;6.22;1.67;;;;;;;19.11;90.61;96992.38;4424387;32;20892;-81
2023/10/22 03:08:38;;;;;;;4.62;1.60;;;;;;;19.31;88.42;96990.50;4412346;32;20165;-80
2023/10/22 03:11:06;;;;;;;4.12;1.52;;;;;;;18.66;91.60;96990.47;4426082;32;20097;-80
2023/10/22 03:13:33;;;;;;;5.35;1.40;;;;;;;18.64;91.58;96988.94;4425736;32;20114;-80
2023/10/22 03:16:15;;;;;;;5.97;1.62;;;;;;;18.22;95.39;97002.34;4425868;32;20153;-80
2023/10/22 03:18:44;;;;;;;7.90;1.65;;;;;;;18.64;92.91;96996.78;4425936;32;20078;-80
2023/10/22 03:21:16;;;;;;;7.95;1.77;;;;;;;17.97;96.25;96998.50;4425640;32;20157;-80
2023/10/22 03:23:44;;;;;;;7.25;1.60;;;;;;;18.28;94.44;97007.00;4412266;32;20171;-80
2023/10/22 03:26:14;;;;;;;5.70;1.60;;;;;;;18.42;93.27;97011.00;4399560;32;20108;-80
2023/10/22 03:28:42;;;;;;;6.95;1.60;;;;;;;18.65;91.93;97017.56;4412134;32;20089;-80
2023/10/22 03:31:09;;;;;;;5.05;1.73;;;;;;;18.58;92.24;97021.69;4425953;32;20155;-80
2023/10/22 03:33:36;;;;;;;5.53;1.62;;;;;;;18.70;92.53;97014.53;4425960;32;20589;-80
2023/10/22 03:36:04;;;;;;;6.47;1.60;;;;;;;18.69;91.39;97016.31;4425324;32;20494;-80
2023/10/22 03:38:31;;;;;;;8.35;2.20;;;;;;;18.65;92.87;97019.38;4425866;32;20077;-80
2023/10/22 03:41:03;;;;;;;6.55;1.92;;;;;;;18.41;94.56;97025.00;4399151;32;20173;-80
2023/10/22 03:43:31;;;;;;;6.62;1.80;;;;;;;18.57;92.86;97020.03;4425907;32;20137;-80
2023/10/22 03:45:58;;;;;;;4.80;1.48;;;;;;;18.54;92.28;97027.34;4425532;32;20547;-80
2023/10/22 03:48:26;;;;;;;5.43;1.80;;;;;;;19.13;89.37;97021.81;4425502;32;20085;-80
2023/10/22 03:50:54;;;;;;;6.80;1.90;;;;;;;18.87;91.23;97029.50;4412049;32;20106;-80
2023/10/22 03:53:22;;;;;;;5.25;1.50;;;;;;;19.39;87.39;97031.66;4425800;32;20112;-80
2023/10/22 03:55:49;;;;;;;6.57;1.70;;;;;;;19.43;86.59;97040.84;4411511;32;20094;-80
2023/10/22 03:58:16;;;;;;;5.55;1.60;;;;;;;19.35;86.92;97047.62;4425805;32;20129;-80
2023/10/22 04:00:44;;;;;;;5.28;1.70;;;;;;;19.12;88.27;97053.34;4412024;32;20093;-80
2023/10/22 04:03:11;;;;;;;5.78;1.85;;;;;;;19.51;86.23;97056.63;4425377;32;20452;-80
2023/10/22 04:05:39;;;;;;;5.75;1.67;;;;;;;19.54;85.31;97058.97;4425553;32;20120;-80
2023/10/22 04:08:07;;;;;;;8.13;1.80;;;;;;;19.46;86.00;97059.72;4425804;32;20085;-80
2023/10/22 04:10:35;;;;;;;5.57;1.90;;;;;;;19.62;85.11;97067.75;4425364;32;20085;-80
2023/10/22 04:13:02;;;;;;;5.37;1.70;;;;;;;19.78;84.25;97064.53;4411904;32;20118;-80
2023/10/22 04:15:36;;;;;;;7.32;2.15;;;;;;;19.62;84.80;97064.31;4425542;32;20164;-80
2023/10/22 04:18:03;;;;;;;6.00;1.50;;;;;;;19.94;82.45;97062.06;4410951;32;20090;-80
2023/10/22 04:20:33;;;;;;;7.55;2.00;;;;;;;20.22;80.86;97073.31;4425653;32;20159;-80
2023/10/22 04:23:00;;;;;;;7.20;1.90;;;;;;;20.21;80.38;97076.09;4398947;32;20105;-80
2023/10/22 04:25:30;;;;;;;7.40;1.60;;;;;;;20.21;80.03;97070.88;4425467;32;20093;-80
2023/10/22 04:27:57;;;;;;;4.97;1.85;;;;;;;19.95;81.83;97078.59;4425640;32;20166;-80
2023/10/22 04:30:25;;;;;;;4.50;1.62;;;;;;;19.82;83.25;97086.81;4425253;32;20097;-80
2023/10/22 04:32:52;;;;;;;9.02;1.90;;;;;;;19.28;86.60;97085.78;4425548;32;20141;-80
2023/10/22 04:35:19;;;;;;;7.68;1.92;;;;;;;18.88;88.81;97088.63;4425404;32;20090;-80
2023/10/22 04:37:46;;;;;;;7.62;2.05;;;;;;;18.87;90.52;97080.94;4425087;32;20078;-80
2023/10/22 04:40:13;;;;;;;6.60;2.05;;;;;;;18.53;93.22;97093.59;4425510;32;20190;-80
2023/10/22 04:42:40;;;;;;;9.73;2.08;;;;;;;18.70;92.07;97092.91;4425500;32;20416;-80
2023/10/22 04:45:08;;;;;;;7.57;2.15;;;;;;;18.52;93.58;97095.38;4424979;32;20113;-80
2023/10/22 04:47:35;;;;;;;8.48;2.45;;;;;;;18.83;91.74;97103.09;4425435;32;20077;-80
2023/10/22 04:50:02;;;;;;;11.35;2.83;;;;;;;18.29;95.60;97102.66;4411699;32;20140;-80
2023/10/22 04:52:33;;;;;;;7.20;2.33;;;;;;;18.59;93.53;97108.69;4411282;32;20170;-80
2023/10/22 04:55:01;;;;;;;6.35;2.03;;;;;;;18.59;94.07;97121.75;4425283;32;20094;-80
2023/10/22 04:57:29;;;;;;;10.75;2.42;;;;;;;18.19;96.80;97118.31;4425426;32;20077;-80
2023/10/22 04:59:56;;;;;;;7.68;2.60;;;;;;;17.67;100.00;97108.12;4424997;32;20101;-80
2023/10/22 05:02:23;;;;;;;9.98;2.50;;;;;;;18.18;96.85;97115.81;4425353;32;20110;-80
2023/10/22 05:04:51;;;;;;;8.90;2.55;;;;;;;18.50;95.07;97112.97;4425171;32;20449;-80
2023/10/22 05:07:19;;;;;;;9.38;2.90;;;;;;;18.24;96.05;97112.69;4425009;32;20081;-80
2023/10/22 05:09:45;;;;;;;5.95;2.50;;;;;;;18.17;95.80;97122.84;4425284;32;20115;-80
2023/10/22 05:12:12;;;;;;;7.68;2.60;;;;;;;17.95;98.51;97127.47;4424995;32;20118;-80
2023/10/22 05:14:39;;;;;;;8.57;2.83;;;;;;;17.96;98.70;97145.59;4425088;32;20107;-80
2023/10/22 05:17:07;;;;;;;9.70;3.03;;;;;;;17.72;100.00;97147.72;4424948;32;20090;-80
2023/10/22 05:19:35;;;;;;;7.70;2.30;;;;;;;17.86;100.00;97153.41;4424921;32;20134;-80
2023/10/22 05:22:04;;;;;;;11.18;2.80;;;;;;;17.98;99.22;97155.94;4425144;32;20145;-80
2023/10/22 05:24:32;;;;;;;6.85;2.47;;;;;;;18.06;98.73;97154.28;4425003;32;20089;-80
2023/10/22 05:26:59;;;;;;;6.87;2.50;;;;;;;18.05;99.29;97165.69;4424763;32;20452;-80
2023/10/22 05:29:28;;;;;;;8.90;3.12;;;;;;;18.17;97.34;97167.22;4425065;32;20149;-80
2023/10/22 05:31:55;;;;;;;7.80;2.67;;;;;;;18.14;98.36;97177.94;4411573;32;20502;-80
2023/10/22 05:34:22;;;;;;;8.00;2.95;;;;;;;18.29;96.30;97188.84;4424622;32;20605;-80
2023/10/22 05:36:49;;;;;;;6.93;3.00;;;;;;;18.43;95.95;97188.44;4424972;32;20082;-80
2023/10/22 05:39:16;;;;;;;10.85;2.83;;;;;;;18.24;95.67;97162.28;4425025;32;20128;-80
2023/10/22 05:41:43;;;;;;;9.13;3.00;;;;;;;18.44;94.58;97191.88;4424647;32;20156;-80
2023/10/22 05:44:10;;;;;;;9.80;2.80;;;;;;;18.47;94.62;97197.66;4425002;32;20104;-80
2023/10/22 05:46:37;;;;;;;9.98;2.80;;;;;;;18.44;94.54;97205.75;4424849;32;20141;-80
2023/10/22 05:49:04;;;;;;;13.90;2.75;;;;;;;18.72;92.51;97212.03;4424586;32;20109;-80
2023/10/22 05:51:32;;;;;;;9.57;2.78;;;;;;;18.55;93.24;97227.50;4424827;32;20161;-80
2023/10/22 05:53:59;;;;;;;6.72;2.85;;;;;;;18.59;93.01;97224.47;4424881;32;20089;-80
2023/10/22 05:56:32;;;;;;;7.75;2.90;;;;;;;18.58;93.04;97227.22;4424356;32;20094;-80
2023/10/22 05:59:03;;;;;;;11.15;2.80;;;;;;;18.52;92.96;97233.84;4424960;32;20148;-80
2023/10/22 06:01:30;;;;;;;5.90;2.45;;;;;;;18.59;92.50;97223.66;4411278;32;20109;-80
2023/10/22 06:03:57;;;;;;;8.20;3.10;;;;;;;18.62;93.05;97233.84;4424724;32;20440;-80
2023/10/22 06:06:24;;;;;;;9.75;2.67;;;;;;;18.76;93.50;97229.06;4424660;32;20151;-80
2023/10/22 06:08:51;;;;;;;8.55;2.97;;;;;;;19.26;90.26;97246.44;4424312;32;20137;-80
2023/10/22 06:11:18;;;;;;;7.72;2.42;;;;;;;19.66;86.76;97248.84;4424635;32;20112;-80
2023/10/22 06:13:46;;;;;;;8.55;2.40;;;;;;;19.72;86.37;97264.00;4424538;32;20421;-80
2023/10/22 06:16:13;;;;;;;5.93;2.15;;;;;;;19.96;84.49;97273.16;4424215;32;20169;-80
2023/10/22 06:18:40;;;;;;;8.98;2.00;;;;;;;20.01;84.24;97269.16;4424482;32;20097;-80
2023/10/22 06:21:20;;;;;;;9.68;3.15;;;;;;;20.19;81.54;97275.28;4410692;32;20098;-80
2023/10/22 06:23:49;;;;;;;8.65;2.58;;;;;;;19.84;82.52;97270.72;4424152;32;20090;-80
2023/10/22 06:26:16;;;;;;;8.32;2.40;;;;;;;19.73;83.98;97281.34;4424279;32;20105;-80
2023/10/22 06:28:43;;;;;;;6.72;2.55;;;;;;;19.89;83.67;97283.41;4410589;32;20448;-80
2023/10/22 06:31:12;;;;;;;8.88;2.33;;;;;;;20.10;82.94;97293.66;4423891;32;20094;-80
2023/10/22 06:33:40;;;;;;;6.85;2.25;;;;;;;20.14;82.50;97288.00;4410554;32;20128;-80
2023/10/22 06:36:15;;;;;;;7.80;2.28;;;;;;;20.23;82.46;97300.22;4410277;32;20086;-80
2023/10/22 06:38:43;;;;;;;6.87;2.30;;;;;;;20.59;81.47;97308.22;4410455;32;20476;-80
2023/10/22 06:41:26;;;;;;;9.82;2.12;;;;;;;20.88;78.91;97310.69;4425034;32;20098;-80
2023/10/22 06:43:53;;;;;;;9.02;2.20;;;;;;;21.57;75.94;97315.28;4426081;32;20161;-80
2023/10/22 06:46:20;;;;;;;5.85;2.10;;;;;;;22.23;72.08;97322.69;4426033;32;20466;-80
2023/10/22 06:48:48;;;;;;;5.40;2.12;;;;;;;22.62;70.32;97334.50;4412348;32;20113;-80
2023/10/22 06:51:16;;;;;;;7.60;1.83;;;;;;;22.93;68.48;97329.56;4425907;32;20112;-80
2023/10/22 06:53:47;;;;;;;7.35;2.20;;;;;;;22.35;69.39;97343.44;4426192;32;20090;-80
2023/10/22 06:56:15;;;;;;;7.43;2.50;;;;;;;22.18;69.81;97339.88;4426060;32;20167;-80
2023/10/22 06:58:42;;;;;;;9.70;2.20;;;;;;;21.21;73.77;97334.63;4425746;32;20105;-80
2023/10/22 07:01:11;;;;;;;9.80;2.53;;;;;;;20.58;78.23;97338.03;4426228;32;20111;-80
2023/10/22 07:03:44;;;;;;;5.82;2.30;;;;;;;20.83;78.19;97349.63;4426036;32;20082;-81
2023/10/22 07:06:11;;;;;;;5.20;1.90;;;;;;;21.69;75.35;97349.16;4411982;32;20085;-80
2023/10/22 07:08:39;;;;;;;3.80;1.80;;;;;;;21.58;73.29;97343.19;4426095;32;20436;-80
2023/10/22 07:11:06;;;;;;;3.92;1.80;;;;;;;21.11;74.90;97339.94;4412247;32;20183;-80
2023/10/22 07:13:33;;;;;;;6.47;2.00;;;;;;;20.46;77.79;97353.12;4425808;32;20120;-80
2023/10/22 07:16:00;;;;;;;8.70;1.80;;;;;;;20.99;75.98;97356.84;4425806;32;20112;-81
2023/10/22 07:18:27;;;;;;;6.72;2.03;;;;;;;21.00;75.70;97361.13;4425449;32;20098;-80
2023/10/22 07:20:54;;;;;;;7.03;1.90;;;;;;;21.19;74.27;97363.63;4426060;32;20094;-80
2023/10/22 07:23:21;;;;;;;8.40;1.98;;;;;;;21.07;74.74;97370.06;4425976;32;20098;-80
2023/10/22 07:25:55;;;;;;;10.05;2.15;;;;;;;21.22;75.02;97373.81;4425514;32;20157;-80
2023/10/22 07:28:22;;;;;;;4.40;1.75;;;;;;;22.15;71.68;97385.69;4425910;32;20412;-81
2023/10/22 07:30:49;;;;;;;5.07;1.52;;;;;;;22.84;68.09;97391.00;4426002;32;20587;-81
2023/10/22 07:33:17;;;;;;;7.65;1.80;;;;;;;23.53;64.24;97387.25;4425658;32;20176;-81
2023/10/22 07:35:54;;;;;;;4.53;1.58;;;;;;;23.44;63.73;97396.13;4425840;32;20462;-81
2023/10/22 07:38:23;;;;;;;7.68;1.77;;;;;;;22.52;66.06;97398.53;4425906;32;20097;-80
2023/10/22 07:40:55;;;;;;;7.30;1.65;;;;;;;22.64;66.35;97406.97;4425556;32;20090;-81
2023/10/22 07:43:28;;;;;;;7.25;1.70;;;;;;;22.02;68.28;97421.19;4425958;32;20101;-81
2023/10/22 07:46:01;;;;;;;8.38;1.92;;;;;;;21.79;70.06;97434.75;4425807;32;20085;-81
2023/10/22 07:48:28;;;;;;;8.98;2.20;;;;;;;21.54;71.32;97441.59;4425447;32;20115;-81
2023/10/22 07:51:10;;;;;;;8.45;2.33;;;;;;;21.13;72.57;97434.22;4425846;32;20171;-81
2023/10/22 07:53:38;;;;;;;7.70;1.70;;;;;;;21.29;72.03;97450.19;4424622;32;20172;-80
2023/10/22 07:56:06;;;;;;;2.55;1.30;;;;;;;21.16;72.63;97462.75;4425582;32;20081;-80
2023/10/22 07:58:33;;;;;;;3.42;1.20;;;;;;;19.21;68.44;97449.97;4425853;32;20163;-80
2023/10/22 08:01:00;;;;;;;1.85;0.90;;;;;;;18.41;69.78;97472.44;4411691;32;20531;-80
2023/10/22 08:03:30;;;;;;;2.08;0.80;;;;;;;18.04;70.54;97479.88;4411955;32;20424;-80
2023/10/22 08:05:59;;;;;;;5.57;0.93;;;;;;;17.62;71.73;97484.16;4425527;32;20097;-80
2023/10/22 08:08:26;;;;;;;2.70;1.40;;;;;;;18.24;69.86;97491.28;4425371;32;20101;-80
2023/10/22 08:11:00;;;;;;;2.40;0.93;;;;;;;18.06;69.36;97498.84;4425704;32;20093;-80
2023/10/22 08:13:27;;;;;;;3.65;1.10;;;;;;;17.85;70.42;97500.59;4425680;32;20508;-80
2023/10/22 08:15:56;;;;;;;2.20;0.80;;;;;;;17.53;72.98;97503.97;4411350;32;20105;-80
2023/10/22 08:18:23;;;;;;;3.50;0.80;;;;;;;17.28;73.29;97510.28;4411755;32;20120;-80
2023/10/22 08:20:50;;;;;;;2.10;0.80;;;;;;;17.46;73.73;97517.63;4425614;32;20105;-80
2023/10/22 08:23:17;;;;;;;2.05;0.80;;;;;;;17.42;72.55;97511.81;4425276;32;20100;-80
2023/10/22 08:25:51;;;;;;;0.68;0.60;;;;;;;17.02;75.16;97516.72;4425459;32;20077;-80
2023/10/22 08:28:18;;;;;;;1.27;0.40;;;;;;;17.42;73.21;97516.19;4425582;32;20125;-80
2023/10/22 08:30:46;;;;;;;2.92;0.82;;;;;;;16.63;74.16;97508.34;4411526;32;20516;-80
2023/10/22 08:33:13;;;;;;;1.80;0.90;;;;;;;17.29;71.30;97518.94;4411779;32;20161;-80
2023/10/22 08:35:40;;;;;;;1.55;0.93;;;;;;;17.78;70.25;97526.38;4425052;32;20479;-80
2023/10/22 08:38:07;;;;;;;4.25;1.40;;;;;;;18.13;67.28;97536.56;4425501;32;20101;-80
2023/10/22 08:40:41;;;;;;;2.40;0.70;;;;;;;18.53;64.47;97541.13;4425552;32;20161;-80
2023/10/22 08:43:18;;;;;;;1.02;0.60;;;;;;;18.41;65.27;97545.59;4411811;32;20090;-80
2023/10/22 08:45:49;;;;;;;1.27;0.68;;;;;;;18.23;64.43;97544.47;4411622;32;20081;-80
2023/10/22 08:48:17;;;;;;;0.62;0.40;;;;;;;18.30;63.48;97550.88;4425514;32;20109;-80
2023/10/22 08:50:46;;;;;;;0.90;0.40;;;;;;;17.96;65.54;97555.34;4425054;32;20400;-80
2023/10/22 08:53:15;;;;;;;0.60;0.43;;;;;;;17.82;64.96;97548.63;4411817;32;20128;-80
2023/10/22 08:55:46;;;;;;;0.50;0.40;;;;;;;17.53;66.32;97566.56;4425244;32;20424;-80
2023/10/22 08:58:19;;;;;;;1.12;0.47;;;;;;;17.56;67.03;97568.13;4411053;32;20113;-80
2023/10/22 09:00:48;;;;;;;0.85;0.40;;;;;;;17.77;65.95;97565.62;4425418;32;20153;-80
2023/10/22 09:03:17;;;;;;;3.47;0.60;;;;;;;17.77;65.53;97576.91;4424886;32;20090;-80
2023/10/22 09:05:46;;;;;;;1.45;0.62;;;;;;;17.88;65.27;97584.69;4424856;32;20078;-80
2023/10/22 09:08:14;;;;;;;0.73;0.47;;;;;;;18.08;64.02;97585.72;4411494;32;20121;-80
2023/10/22 09:10:41;;;;;;;1.98;0.70;;;;;;;17.91;65.50;97591.44;4411219;32;20119;-80
2023/10/22 09:13:16;;;;;;;4.75;0.70;;;;;;;16.89;70.58;97589.75;4425303;32;20086;-80
2023/10/22 09:15:45;;;;;;;0.82;0.50;;;;;;;16.91;71.80;97602.72;4425120;32;20074;-80
2023/10/22 09:18:13;;;;;;;0.47;0.47;;;;;;;16.51;71.96;97599.59;4424496;32;20374;-80
2023/10/22 09:20:41;;;;;;;0.77;0.52;;;;;;;16.98;71.31;97602.09;4425139;32;20152;-80
2023/10/22 09:23:15;;;;;;;1.20;0.60;;;;;;;16.86;73.42;97599.59;4425156;32;20424;-80
2023/10/22 09:25:43;;;;;;;2.12;0.60;;;;;;;16.90;73.34;97594.03;4424775;32;20089;-80
2023/10/22 09:28:16;;;;;;;1.52;0.60;;;;;;;16.68;73.74;97602.63;4411438;32;20098;-80
2023/10/22 09:30:43;;;;;;;2.10;0.70;;;;;;;16.60;74.45;97602.34;4425237;32;20101;-80
2023/10/22 09:33:10;;;;;;;2.47;0.62;;;;;;;16.50;74.77;97590.97;4424798;32;20203;-80
2023/10/22 09:35:38;;;;;;;1.02;0.60;;;;;;;16.47;76.84;97591.16;4424928;32;20155;-80
2023/10/22 09:38:05;;;;;;;0.90;0.52;;;;;;;16.99;74.17;97587.28;4424899;32;20110;-80
2023/10/22 09:40:33;;;;;;;2.33;0.60;;;;;;;17.46;72.21;97601.09;4424638;32;20093;-80
2023/10/22 09:43:04;;;;;;;1.05;0.52;;;;;;;17.90;69.67;97602.84;4425021;32;20139;-80
2023/10/22 09:45:31;;;;;;;0.77;0.40;;;;;;;18.10;69.32;97602.09;4411478;32;20410;-81
2023/10/22 09:48:03;;;;;;;2.90;0.68;;;;;;;18.66;65.48;97612.34;4410793;32;20106;-80
2023/10/22 09:50:44;;;;;;;0.93;0.43;;;;;;;18.59;64.91;97610.31;4412109;32;20443;-81
2023/10/22 09:53:15;;;;;;;1.40;0.60;;;;;;;18.33;64.32;97615.06;4424615;32;20094;-81
2023/10/22 09:55:46;;;;;;;1.73;0.68;;;;;;;18.71;62.09;97614.56;4424725;32;20156;-80
2023/10/22 09:58:16;;;;;;;1.40;0.50;;;;;;;18.63;63.04;97612.56;4411020;32;20122;-80
2023/10/22 10:00:46;;;;;;;1.83;0.70;;;;;;;18.81;60.63;97623.28;4410770;32;20385;-80
2023/10/22 10:03:20;;;;;;;2.42;0.50;;;;;;;18.79;61.65;97628.66;4424869;32;20112;-81
2023/10/22 10:05:48;;;;;;;2.60;0.60;;;;;;;18.40;60.46;97624.06;4424691;32;20137;-81
2023/10/22 10:08:16;;;;;;;0.45;0.40;;;;;;;19.31;58.96;97626.09;4424363;32;20358;-80
2023/10/22 10:10:45;;;;;;;2.65;0.50;;;;;;;19.45;58.34;97630.13;4410911;32;20165;-81
2023/10/22 10:13:12;;;;;;;2.70;0.55;;;;;;;19.37;56.75;97631.63;4424640;32;20124;-81
2023/10/22 10:15:39;;;;;;;0.93;0.40;;;;;;;19.28;57.80;97631.59;4410688;32;20139;-81
2023/10/22 10:18:09;;;;;;;1.10;0.50;;;;;;;20.16;55.67;97637.00;4426088;32;20168;-81
2023/10/22 10:20:39;;;;;;;1.98;0.62;;;;;;;20.08;54.94;97631.59;4413244;32;20124;-81
2023/10/22 10:23:11;;;;;;;0.98;0.40;;;;;;;20.01;53.92;97633.13;4426089;32;20094;-80
2023/10/22 10:25:39;;;;;;;0.52;0.40;;;;;;;19.46;53.95;97635.25;4426406;32;20492;-80
2023/10/22 10:28:08;;;;;;;2.00;0.73;;;;;;;20.02;54.22;97639.19;4426029;32;20169;-81
2023/10/22 10:30:37;;;;;;;1.12;0.60;;;;;;;20.12;53.33;97643.50;4426428;32;20115;-81
2023/10/22 10:33:04;;;;;;;1.73;0.60;;;;;;;19.93;53.76;97646.87;4426361;32;20112;-81
2023/10/22 10:35:48;;;;;;;1.95;0.50;;;;;;;19.63;54.65;97645.13;4412457;32;20151;-81
2023/10/22 10:38:19;;;;;;;0.52;0.40;;;;;;;20.24;53.27;97633.72;4412482;32;20102;-81
2023/10/22 10:40:51;;;;;;;0.30;0.30;;;;;;;20.57;51.48;97639.56;4426432;32;20113;-81
2023/10/22 10:43:18;;;;;;;1.45;0.37;;;;;;;20.26;52.88;97637.03;4426118;32;20523;-81
2023/10/22 10:46:23;;;;;;;1.58;0.50;;;;;;;20.39;52.61;97634.97;4426258;32;20133;-81
2023/10/22 10:48:51;;;;;;;0.73;0.40;;;;;;;20.13;53.05;97642.53;4426136;32;20090;-81
2023/10/22 10:51:23;;;;;;;0.57;0.40;;;;;;;20.47;51.69;97629.09;4426175;32;20165;-81
2023/10/22 10:54:14;;;;;;;0.60;0.45;;;;;;;20.35;52.04;97624.91;4426349;32;20111;-81
2023/10/22 10:56:55;;;;;;;2.42;0.52;;;;;;;19.75;54.17;97634.56;4425719;32;20078;-81
2023/10/22 10:59:27;;;;;;;2.33;0.60;;;;;;;20.63;52.62;97628.50;4426222;32;20207;-81
2023/10/22 11:02:01;;;;;;;3.53;0.50;;;;;;;20.80;50.73;97627.81;4426086;32;20089;-81
2023/10/22 11:04:29;;;;;;;2.60;0.50;;;;;;;20.96;51.08;97640.38;4425795;32;20090;-81
2023/10/22 11:06:57;;;;;;;5.12;0.60;;;;;;;20.56;51.71;97640.53;4426043;32;20173;-81
2023/10/22 11:09:39;;;;;;;0.85;0.60;;;;;;;20.93;51.20;97646.72;4414003;32;20098;-81
2023/10/22 11:12:08;;;;;;;1.05;0.43;;;;;;;21.28;49.75;97661.87;4425851;32;20687;-81
2023/10/22 11:14:36;;;;;;;2.60;0.52;;;;;;;21.18;49.56;97655.81;4412313;32;20164;-81
2023/10/22 11:17:04;;;;;;;1.42;0.40;;;;;;;21.31;48.88;97660.78;4425273;32;20074;-81
2023/10/22 11:19:32;;;;;;;1.95;0.40;;;;;;;20.39;50.08;97647.25;4426173;32;20148;-81
2023/10/22 11:21:59;;;;;;;2.90;0.55;;;;;;;20.87;50.18;97657.78;4426052;32;20106;-81
2023/10/22 11:24:31;;;;;;;0.20;0.20;;;;;;;21.75;47.86;97663.66;4425667;32;20146;-81
2023/10/22 11:27:03;;;;;;;1.98;0.68;;;;;;;20.40;49.88;97647.09;4425833;32;20149;-81
2023/10/22 11:29:47;;;;;;;1.95;0.30;;;;;;;21.01;47.51;97649.47;4412070;32;20110;-81
2023/10/22 11:32:16;;;;;;;1.17;0.45;;;;;;;21.38;47.69;97648.75;4425712;32;20115;-80
2023/10/22 11:34:58;;;;;;;2.37;0.50;;;;;;;21.40;47.28;97664.34;4425847;32;20097;-81
2023/10/22 11:37:41;;;;;;;3.08;1.05;;;;;;;22.48;45.31;97660.09;4425750;32;20137;-81
2023/10/22 11:40:28;;;;;;;1.02;0.50;;;;;;;21.11;46.33;97667.00;4412540;32;20121;-81